createdAt,value
2023-02-06T00:01:15.577Z,100626.25
2023-02-06T00:03:42.321Z,100598.41
2023-02-06T00:06:08.959Z,100578.78
2023-02-06T00:08:35.543Z,100620.06
2023-02-06T00:11:07.522Z,100621.81
2023-02-06T00:16:06.374Z,100623.50
2023-02-06T00:18:34.027Z,100609.59
2023-02-06T00:21:00.528Z,100612.03
2023-02-06T00:23:27.187Z,100609.47
2023-02-06T00:25:53.786Z,100608.53
2023-02-06T00:28:20.427Z,100592.31
2023-02-06T00:30:47.728Z,100613.75
2023-02-06T00:33:14.521Z,100609.34
2023-02-06T00:35:41.170Z,100607.56
2023-02-06T00:38:10.739Z,100607.56
2023-02-06T00:40:37.736Z,100609.41
2023-02-06T00:43:04.374Z,100613.66
2023-02-06T00:45:30.980Z,100611.94
2023-02-06T00:47:57.698Z,100600.69
2023-02-06T00:50:24.307Z,100617.16
2023-02-06T00:52:50.930Z,100614.69
2023-02-06T00:55:17.665Z,100613.59
2023-02-06T00:57:44.198Z,100606.59
2023-02-06T01:00:11.601Z,100603.97
2023-02-06T01:02:38.869Z,100590.19
2023-02-06T01:05:06.090Z,100591.97
2023-02-06T01:07:38.306Z,100605.75
2023-02-06T01:10:05.890Z,100602.19
2023-02-06T01:12:34.523Z,100601.31
2023-02-06T01:15:02.137Z,100592.50
2023-02-06T01:17:32.954Z,100596.94
2023-02-06T01:20:00.102Z,100578.66
2023-02-06T01:22:26.930Z,100575.81
2023-02-06T01:24:53.545Z,100581.03
2023-02-06T01:27:20.202Z,100575.81
2023-02-06T01:29:46.823Z,100558.25
2023-02-06T01:32:13.321Z,100560.00
2023-02-06T01:34:39.851Z,100547.94
2023-02-06T01:37:06.410Z,100554.19
2023-02-06T01:39:33.095Z,100562.66
2023-02-06T01:41:59.762Z,100565.28
2023-02-06T01:44:27.436Z,100564.38
2023-02-06T01:46:56.935Z,100545.41
2023-02-06T01:49:37.591Z,100558.25
2023-02-06T01:52:14.186Z,100555.69
2023-02-06T01:54:43.498Z,100548.75
2023-02-06T01:57:12.528Z,100561.81
2023-02-06T01:59:44.825Z,100545.34
2023-02-06T02:02:13.002Z,100561.88
2023-02-06T02:04:39.568Z,100557.44
2023-02-06T02:07:26.121Z,100553.97
2023-02-06T02:09:53.154Z,100551.31
2023-02-06T02:12:20.471Z,100546.97
2023-02-06T02:14:50.350Z,100544.31
2023-02-06T02:17:19.563Z,100538.19
2023-02-06T02:20:23.818Z,100544.31
2023-02-06T02:22:56.583Z,100541.72
2023-02-06T02:25:32.157Z,100545.22
2023-02-06T02:28:09.874Z,100543.47
2023-02-06T02:30:51.467Z,100536.47
2023-02-06T02:33:45.500Z,100527.63
2023-02-06T02:36:23.951Z,100539.09
2023-02-06T02:39:07.279Z,100512.09
2023-02-06T02:41:53.035Z,100516.31
2023-02-06T02:44:47.319Z,100500.84
2023-02-06T02:47:17.527Z,100503.13
2023-02-06T02:49:45.738Z,100505.78
2023-02-06T02:52:13.384Z,100491.13
2023-02-06T02:54:39.993Z,100481.56
2023-02-06T02:57:23.942Z,100496.56
2023-02-06T02:59:51.973Z,100514.63
2023-02-06T03:02:40.765Z,100509.38
2023-02-06T03:05:11.430Z,100519.91
2023-02-06T03:08:10.869Z,100512.91
2023-02-06T03:10:44.566Z,100512.94
2023-02-06T03:13:26.745Z,100510.28
2023-02-06T03:16:11.012Z,100504.31
2023-02-06T03:18:46.582Z,100500.72
2023-02-06T03:21:19.151Z,100503.56
2023-02-06T03:23:49.406Z,100509.66
2023-02-06T03:26:20.670Z,100513.06
2023-02-06T03:28:54.602Z,100518.34
2023-02-06T03:31:31.005Z,100505.44
2023-02-06T03:34:12.353Z,100522.75
2023-02-06T03:36:39.453Z,100511.53
2023-02-06T03:39:06.126Z,100521.06
2023-02-06T03:41:36.418Z,100526.44
2023-02-06T03:44:06.542Z,100531.59
2023-02-06T03:46:36.126Z,100510.78
2023-02-06T03:49:07.335Z,100530.75
2023-02-06T03:51:40.093Z,100529.91
2023-02-06T03:54:09.281Z,100529.94
2023-02-06T03:56:44.565Z,100529.03
2023-02-06T03:59:11.317Z,100520.28
2023-02-06T04:01:47.996Z,100522.09
2023-02-06T04:04:17.703Z,100530.84
2023-02-06T04:06:44.703Z,100513.31
2023-02-06T04:09:14.808Z,100493.28
2023-02-06T04:11:41.407Z,100500.16
2023-02-06T04:14:08.052Z,100500.16
2023-02-06T04:16:34.568Z,100501.91
2023-02-06T04:19:01.169Z,100500.16
2023-02-06T04:21:27.671Z,100481.94
2023-02-06T04:23:54.284Z,100498.47
2023-02-06T04:26:20.818Z,100502.88
2023-02-06T04:28:47.338Z,100501.13
2023-02-06T04:31:13.974Z,100512.56
2023-02-06T04:33:40.704Z,100517.84
2023-02-06T04:36:07.485Z,100523.13
2023-02-06T04:38:34.022Z,100520.50
2023-02-06T04:41:05.325Z,100529.28
2023-02-06T04:43:33.094Z,100537.28
2023-02-06T04:45:59.669Z,100532.03
2023-02-06T04:48:26.389Z,100539.03
2023-02-06T04:50:53.093Z,100533.81
2023-02-06T04:53:19.776Z,100540.88
2023-02-06T04:55:46.374Z,100524.22
2023-02-06T04:58:13.442Z,100526.00
2023-02-06T05:00:39.954Z,100530.41
2023-02-06T05:03:06.963Z,100534.84
2023-02-06T05:05:33.563Z,100537.47
2023-02-06T05:08:00.224Z,100530.47
2023-02-06T05:10:26.967Z,100536.59
2023-02-06T05:12:55.933Z,100537.50
2023-02-06T05:15:22.502Z,100540.13
2023-02-06T05:17:49.082Z,100541.03
2023-02-06T05:20:15.650Z,100547.19
2023-02-06T05:22:42.275Z,100547.25
2023-02-06T05:25:08.879Z,100544.63
2023-02-06T05:27:35.474Z,100542.06
2023-02-06T05:30:02.119Z,100549.91
2023-02-06T05:32:28.824Z,100549.06
2023-02-06T05:34:55.310Z,100556.13
2023-02-06T05:37:21.926Z,100561.41
2023-02-06T05:39:48.437Z,100554.34
2023-02-06T05:42:15.350Z,100553.50
2023-02-06T05:44:41.831Z,100543.84
2023-02-06T05:47:08.390Z,100545.59
2023-02-06T05:49:34.889Z,100558.78
2023-02-06T05:52:01.560Z,100546.50
2023-02-06T05:54:28.110Z,100554.44
2023-02-06T05:56:54.703Z,100550.09
2023-02-06T05:59:21.316Z,100542.28
2023-02-06T06:01:48.014Z,100540.50
2023-02-06T06:04:14.770Z,100529.50
2023-02-06T06:06:41.848Z,100537.31
2023-02-06T06:09:08.442Z,100538.03
2023-02-06T06:11:35.078Z,100540.66
2023-02-06T06:14:01.617Z,100527.81
2023-02-06T06:16:28.240Z,100545.09
2023-02-06T06:18:55.788Z,100533.16
2023-02-06T06:21:23.093Z,100539.94
2023-02-06T06:23:49.755Z,100523.41
2023-02-06T06:26:17.034Z,100516.56
2023-02-06T06:28:43.626Z,100537.34
2023-02-06T06:31:14.367Z,100539.84
2023-02-06T06:33:41.466Z,100530.25
2023-02-06T06:36:09.765Z,100543.28
2023-02-06T06:38:37.025Z,100539.75
2023-02-06T06:41:03.613Z,100538.81
2023-02-06T06:43:31.251Z,100539.78
2023-02-06T06:46:00.331Z,100538.03
2023-02-06T06:48:27.375Z,100534.50
2023-02-06T06:50:53.962Z,100538.88
2023-02-06T06:53:20.711Z,100545.03
2023-02-06T06:55:47.254Z,100548.50
2023-02-06T06:58:14.169Z,100526.91
2023-02-06T07:00:41.077Z,100541.69
2023-02-06T07:03:07.862Z,100547.88
2023-02-06T07:05:35.406Z,100558.34
2023-02-06T07:08:02.227Z,100556.59
2023-02-06T07:10:29.009Z,100547.94
2023-02-06T07:12:56.621Z,100536.88
2023-02-06T07:15:23.898Z,100499.84
2023-02-06T07:17:50.653Z,100533.38
2023-02-06T07:20:17.308Z,100537.72
2023-02-06T07:22:43.922Z,100538.41
2023-02-06T07:25:10.595Z,100553.31
2023-02-06T07:27:37.209Z,100555.06
2023-02-06T07:30:06.445Z,100530.13
2023-02-06T07:32:36.034Z,100509.41
2023-02-06T07:35:02.962Z,100549.09
2023-02-06T07:37:29.641Z,100546.34
2023-02-06T07:39:56.177Z,100550.78
2023-02-06T07:42:22.774Z,100547.28
2023-02-06T07:44:57.447Z,100555.19
2023-02-06T07:49:52.382Z,100552.56
2023-02-06T07:52:20.247Z,100557.00
2023-02-06T07:54:46.799Z,100552.56
2023-02-06T07:57:16.464Z,100547.47
2023-02-06T07:59:43.028Z,100548.28
2023-02-06T08:02:11.829Z,100548.25
2023-02-06T08:04:38.659Z,100540.34
2023-02-06T08:07:06.451Z,100540.34
2023-02-06T08:09:33.286Z,100542.09
2023-02-06T08:11:59.851Z,100536.81
2023-02-06T08:14:26.613Z,100532.47
2023-02-06T08:16:53.280Z,100540.38
2023-02-06T08:19:20.704Z,100543.00
2023-02-06T08:21:47.290Z,100538.63
2023-02-06T08:24:16.687Z,100540.38
2023-02-06T08:26:46.109Z,100535.41
2023-02-06T08:29:14.416Z,100537.94
2023-02-06T08:31:42.298Z,100540.50
2023-02-06T08:34:12.223Z,100550.91
2023-02-06T08:36:39.279Z,100541.25
2023-02-06T08:39:06.094Z,100543.88
2023-02-06T08:41:40.386Z,100550.00
2023-02-06T08:44:14.955Z,100546.53
2023-02-06T08:46:42.795Z,100527.50
2023-02-06T08:49:18.196Z,100529.25
2023-02-06T08:51:45.771Z,100550.00
2023-02-06T08:54:15.686Z,100539.59
2023-02-06T08:56:42.533Z,100555.28
2023-02-06T08:59:10.934Z,100531.09
2023-02-06T09:01:37.727Z,100542.22
2023-02-06T09:04:07.830Z,100536.19
2023-02-06T09:06:36.533Z,100547.38
2023-02-06T09:09:04.859Z,100552.63
2023-02-06T09:11:32.203Z,100537.16
2023-02-06T09:14:02.447Z,100538.13
2023-02-06T09:16:30.051Z,100550.88
2023-02-06T09:19:01.224Z,100558.72
2023-02-06T09:21:34.884Z,100571.00
2023-02-06T09:24:05.916Z,100580.59
2023-02-06T09:26:50.374Z,100576.09
2023-02-06T09:29:23.912Z,100581.28
2023-02-06T09:31:50.507Z,100576.78
2023-02-06T09:34:17.060Z,100567.06
2023-02-06T09:36:43.611Z,100572.28
2023-02-06T09:39:10.383Z,100580.06
2023-02-06T09:41:46.286Z,100579.94
2023-02-06T09:44:15.781Z,100576.34
2023-02-06T09:47:14.423Z,100568.34
2023-02-06T09:49:49.014Z,100571.78
2023-02-06T09:52:37.563Z,100573.44
2023-02-06T09:55:20.546Z,100571.63
2023-02-06T09:57:53.193Z,100577.72
2023-02-06T10:00:19.743Z,100576.75
2023-02-06T10:03:17.273Z,100572.31
2023-02-06T10:05:44.071Z,100571.38
2023-02-06T10:08:25.749Z,100574.81
2023-02-06T10:11:00.242Z,100573.00
2023-02-06T10:13:42.066Z,100583.50
2023-02-06T10:16:31.346Z,100578.16
2023-02-06T10:19:04.032Z,100571.97
2023-02-06T10:21:41.729Z,100576.28
2023-02-06T10:24:36.002Z,100565.69
2023-02-06T10:27:08.936Z,100570.94
2023-02-06T10:29:36.446Z,100570.88
2023-02-06T10:32:29.074Z,100570.75
2023-02-06T10:34:58.687Z,100568.13
2023-02-06T10:37:52.242Z,100565.41
2023-02-06T10:40:40.823Z,100563.59
2023-02-06T10:43:46.543Z,100557.38
2023-02-06T10:46:37.494Z,100559.13
2023-02-06T10:49:13.851Z,100559.09
2023-02-06T10:51:44.363Z,100565.16
2023-02-06T10:54:26.119Z,100571.25
2023-02-06T10:56:56.925Z,100548.69
2023-02-06T10:59:40.703Z,100562.47
2023-02-06T11:02:11.775Z,100567.56
2023-02-06T11:04:52.863Z,100571.94
2023-02-06T11:07:33.281Z,100569.25
2023-02-06T11:10:00.182Z,100569.22
2023-02-06T11:12:32.155Z,100570.00
2023-02-06T11:15:04.990Z,100560.31
2023-02-06T11:17:31.688Z,100568.19
2023-02-06T11:20:30.530Z,100561.94
2023-02-06T11:22:57.359Z,100561.03
2023-02-06T11:25:33.912Z,100554.84
2023-02-06T11:28:01.039Z,100562.75
2023-02-06T11:30:37.511Z,100552.13
2023-02-06T11:33:21.441Z,100559.13
2023-02-06T11:36:22.584Z,100563.50
2023-02-06T11:39:02.163Z,100559.97
2023-02-06T11:41:30.400Z,100550.25
2023-02-06T11:44:02.727Z,100559.00
2023-02-06T11:46:32.526Z,100562.53
2023-02-06T11:49:29.032Z,100563.38
2023-02-06T11:51:59.890Z,100559.84
2023-02-06T11:54:28.517Z,100561.56
2023-02-06T11:57:07.895Z,100551.91
2023-02-06T11:59:36.833Z,100553.56
2023-02-06T12:02:27.604Z,100557.94
2023-02-06T12:05:02.242Z,100555.31
2023-02-06T12:07:33.916Z,100550.03
2023-02-06T12:10:02.748Z,100555.25
2023-02-06T12:12:35.538Z,100548.22
2023-02-06T12:15:45.559Z,100549.00
2023-02-06T12:18:16.012Z,100542.88
2023-02-06T12:20:56.332Z,100541.03
2023-02-06T12:23:28.667Z,100550.66
2023-02-06T12:25:59.320Z,100531.66
2023-02-06T12:28:57.309Z,100546.19
2023-02-06T12:31:38.302Z,100556.69
2023-02-06T12:34:25.297Z,100552.28
2023-02-06T12:37:00.608Z,100554.88
2023-02-06T12:39:34.393Z,100550.44
2023-02-06T12:42:06.689Z,100552.13
2023-02-06T12:44:42.126Z,100548.59
2023-02-06T12:47:15.415Z,100545.91
2023-02-06T12:49:45.130Z,100538.94
2023-02-06T12:52:24.622Z,100552.00
2023-02-06T12:54:59.099Z,100556.38
2023-02-06T12:57:29.590Z,100556.38
2023-02-06T13:00:17.290Z,100552.84
2023-02-06T13:02:50.049Z,100564.28
2023-02-06T13:05:26.950Z,100558.25
2023-02-06T13:08:02.653Z,100571.28
2023-02-06T13:10:29.296Z,100565.13
2023-02-06T13:12:59.663Z,100573.03
2023-02-06T13:15:38.886Z,100574.72
2023-02-06T13:18:36.871Z,100568.59
2023-02-06T13:21:24.135Z,100565.09
2023-02-06T13:24:03.051Z,100561.59
2023-02-06T13:26:51.372Z,100561.59
2023-02-06T13:29:25.805Z,100575.66
2023-02-06T13:32:10.787Z,100571.28
2023-02-06T13:34:43.327Z,100568.66
2023-02-06T13:37:37.255Z,100565.19
2023-02-06T13:40:26.483Z,100572.16
2023-02-06T13:43:04.276Z,100559.28
2023-02-06T13:45:50.686Z,100573.94
2023-02-06T13:48:32.375Z,100578.34
2023-02-06T13:51:14.122Z,100574.84
2023-02-06T13:53:59.549Z,100572.22
2023-02-06T13:56:53.874Z,100587.16
2023-02-06T13:59:28.102Z,100587.16
2023-02-06T14:01:55.729Z,100591.59
2023-02-06T14:04:28.409Z,100589.03
2023-02-06T14:07:04.189Z,100593.41
2023-02-06T14:09:59.265Z,100594.25
2023-02-06T14:12:39.872Z,100596.94
2023-02-06T14:15:19.281Z,100592.56
2023-02-06T14:17:46.408Z,100597.91
2023-02-06T14:20:24.966Z,100596.19
2023-02-06T14:22:51.471Z,100590.97
2023-02-06T14:25:46.362Z,100591.88
2023-02-06T14:28:34.798Z,100594.69
2023-02-06T14:31:13.319Z,100598.13
2023-02-06T14:34:05.169Z,100605.19
2023-02-06T14:36:56.291Z,100606.97
2023-02-06T14:39:41.443Z,100601.75
2023-02-06T14:42:17.371Z,100605.31
2023-02-06T14:44:46.573Z,100602.66
2023-02-06T14:47:19.168Z,100607.06
2023-02-06T14:49:47.759Z,100597.53
2023-02-06T14:52:21.864Z,100598.22
2023-02-06T14:54:48.844Z,100591.22
2023-02-06T14:57:24.057Z,100592.09
2023-02-06T15:00:18.588Z,100593.00
2023-02-06T15:02:46.035Z,100603.56
2023-02-06T15:05:25.829Z,100601.84
2023-02-06T15:08:03.936Z,100598.34
2023-02-06T15:10:36.006Z,100575.81
2023-02-06T15:13:04.038Z,100596.69
2023-02-06T15:15:33.712Z,100598.44
2023-02-06T15:18:16.249Z,100594.06
2023-02-06T15:20:55.015Z,100595.88
2023-02-06T15:23:34.318Z,100590.59
2023-02-06T15:26:23.201Z,100587.25
2023-02-06T15:28:57.943Z,100597.69
2023-02-06T15:31:24.901Z,100604.75
2023-02-06T15:33:55.126Z,100599.53
2023-02-06T15:36:33.725Z,100607.47
2023-02-06T15:39:01.605Z,100618.03
2023-02-06T15:41:30.906Z,100602.53
2023-02-06T15:44:04.008Z,100616.31
2023-02-06T15:46:31.169Z,100613.78
2023-02-06T15:48:58.318Z,100606.03
2023-02-06T15:51:30.878Z,100618.22
2023-02-06T15:54:19.782Z,100614.66
2023-02-06T15:56:53.090Z,100614.72
2023-02-06T15:59:24.042Z,100620.03
2023-02-06T16:01:52.654Z,100620.09
2023-02-06T16:04:27.820Z,100625.41
2023-02-06T16:07:16.898Z,100614.38
2023-02-06T16:10:22.435Z,100630.88
2023-02-06T16:12:49.339Z,100627.41
2023-02-06T16:15:31.729Z,100634.44
2023-02-06T16:18:01.045Z,100632.75
2023-02-06T16:20:37.236Z,100633.66
2023-02-06T16:23:24.364Z,100633.66
2023-02-06T16:26:07.419Z,100631.97
2023-02-06T16:28:42.166Z,100627.66
2023-02-06T16:31:14.999Z,100631.25
2023-02-06T16:33:44.810Z,100626.13
2023-02-06T16:36:18.035Z,100633.84
2023-02-06T16:38:54.107Z,100640.03
2023-02-06T16:41:37.483Z,100632.19
2023-02-06T16:44:12.716Z,100636.63
2023-02-06T16:46:39.340Z,100635.84
2023-02-06T16:49:11.418Z,100628.06
2023-02-06T16:51:39.014Z,100633.31
2023-02-06T16:54:07.823Z,100634.25
2023-02-06T16:56:38.223Z,100629.94
2023-02-06T16:59:04.790Z,100638.78
2023-02-06T17:01:34.771Z,100631.16
2023-02-06T17:04:02.653Z,100646.84
2023-02-06T17:06:32.742Z,100645.97
2023-02-06T17:09:04.289Z,100640.09
2023-02-06T17:11:31.561Z,100659.25
2023-02-06T17:13:58.876Z,100649.63
2023-02-06T17:16:27.355Z,100647.00
2023-02-06T17:19:01.402Z,100643.53
2023-02-06T17:21:34.698Z,100643.53
2023-02-06T17:24:01.350Z,100654.97
2023-02-06T17:26:27.880Z,100655.91
2023-02-06T17:28:54.511Z,100655.91
2023-02-06T17:31:21.792Z,100655.03
2023-02-06T17:33:48.561Z,100647.19
2023-02-06T17:36:26.835Z,100652.44
2023-02-06T17:38:53.431Z,100642.88
2023-02-06T17:41:19.938Z,100654.25
2023-02-06T17:43:46.626Z,100645.44
2023-02-06T17:46:13.293Z,100648.97
2023-02-06T17:48:42.675Z,100642.81
2023-02-06T17:51:09.747Z,100648.97
2023-02-06T17:53:36.363Z,100649.81
2023-02-06T17:56:12.847Z,100656.00
2023-02-06T17:58:41.098Z,100654.28
2023-02-06T18:01:16.963Z,100656.88
2023-02-06T18:03:43.842Z,100639.66
2023-02-06T18:06:11.405Z,100653.50
2023-02-06T18:08:38.978Z,100653.34
2023-02-06T18:11:18.257Z,100659.50
2023-02-06T18:13:47.589Z,100653.41
2023-02-06T18:16:22.942Z,100659.53
2023-02-06T18:18:50.096Z,100647.56
2023-02-06T18:21:19.269Z,100656.09
2023-02-06T18:23:47.639Z,100657.81
2023-02-06T18:26:15.246Z,100656.97
2023-02-06T18:28:41.854Z,100670.09
2023-02-06T18:31:28.106Z,100667.50
2023-02-06T18:33:56.241Z,100663.13
2023-02-06T18:36:23.535Z,100670.19
2023-02-06T18:38:50.206Z,100675.47
2023-02-06T18:41:35.445Z,100680.75
2023-02-06T18:44:06.497Z,100684.34
2023-02-06T18:46:34.380Z,100687.88
2023-02-06T18:49:00.990Z,100686.22
2023-02-06T18:51:29.397Z,100694.97
2023-02-06T18:53:57.015Z,100675.06
2023-02-06T18:56:23.951Z,100685.38
2023-02-06T18:58:50.563Z,100681.84
2023-02-06T19:01:22.968Z,100675.69
2023-02-06T19:03:50.725Z,100659.34
2023-02-06T19:06:20.513Z,100678.31
2023-02-06T19:08:47.263Z,100679.19
2023-02-06T19:11:17.356Z,100673.22
2023-02-06T19:13:44.200Z,100681.84
2023-02-06T19:16:14.564Z,100688.97
2023-02-06T19:18:44.818Z,100675.28
2023-02-06T19:21:17.251Z,100689.88
2023-02-06T19:23:45.431Z,100675.88
2023-02-06T19:26:14.910Z,100682.88
2023-02-06T19:28:43.051Z,100682.09
2023-02-06T19:31:10.842Z,100672.53
2023-02-06T19:33:39.687Z,100675.97
2023-02-06T19:36:12.138Z,100681.19
2023-02-06T19:38:39.425Z,100675.06
2023-02-06T19:41:14.071Z,100675.06
2023-02-06T19:43:41.269Z,100679.56
2023-02-06T19:46:11.920Z,100681.25
2023-02-06T19:48:39.475Z,100681.31
2023-02-06T19:51:09.104Z,100685.63
2023-02-06T19:53:36.417Z,100686.53
2023-02-06T19:56:04.576Z,100674.31
2023-02-06T19:58:32.812Z,100676.13
2023-02-06T20:01:07.648Z,100688.25
2023-02-06T20:03:34.913Z,100681.31
2023-02-06T20:06:07.822Z,100690.91
2023-02-06T20:08:36.011Z,100690.25
2023-02-06T20:11:07.355Z,100703.19
2023-02-06T20:13:35.361Z,100697.06
2023-02-06T20:16:06.985Z,100708.47
2023-02-06T20:18:35.471Z,100710.25
2023-02-06T20:21:03.601Z,100722.56
2023-02-06T20:23:31.402Z,100701.81
2023-02-06T20:26:02.341Z,100713.84
2023-02-06T20:28:29.991Z,100715.59
2023-02-06T20:30:56.640Z,100726.13
2023-02-06T20:33:23.328Z,100723.50
2023-02-06T20:35:49.864Z,100729.72
2023-02-06T20:38:16.424Z,100730.59
2023-02-06T20:40:49.854Z,100728.81
2023-02-06T20:43:16.453Z,100728.94
2023-02-06T20:45:42.980Z,100737.63
2023-02-06T20:48:09.653Z,100742.06
2023-02-06T20:50:36.374Z,100749.97
2023-02-06T20:53:03.339Z,100748.22
2023-02-06T20:55:29.991Z,100735.16
2023-02-06T20:57:57.065Z,100726.47
2023-02-06T21:00:23.626Z,100728.94
2023-02-06T21:02:52.061Z,100729.88
2023-02-06T21:05:20.223Z,100736.91
2023-02-06T21:07:46.844Z,100735.19
2023-02-06T21:10:13.721Z,100750.13
2023-02-06T21:12:40.300Z,100741.41
2023-02-06T21:15:07.356Z,100745.81
2023-02-06T21:17:33.945Z,100747.63
2023-02-06T21:20:00.521Z,100745.91
2023-02-06T21:22:27.297Z,100753.78
2023-02-06T21:24:53.871Z,100757.34
2023-02-06T21:27:20.467Z,100765.16
2023-02-06T21:29:47.022Z,100766.03
2023-02-06T21:32:14.590Z,100765.22
2023-02-06T21:34:42.346Z,100778.34
2023-02-06T21:37:09.113Z,100768.88
2023-02-06T21:39:38.681Z,100781.94
2023-02-06T21:42:05.477Z,100773.31
2023-02-06T21:44:32.054Z,100784.47
2023-02-06T21:46:58.752Z,100768.16
2023-02-06T21:49:25.363Z,100789.78
2023-02-06T21:51:53.138Z,100790.69
2023-02-06T21:54:19.795Z,100788.94
2023-02-06T21:56:46.411Z,100796.78
2023-02-06T21:59:13.203Z,100793.31
2023-02-06T22:01:41.344Z,100782.16
2023-02-06T22:04:09.352Z,100796.00
2023-02-06T22:06:39.081Z,100804.69
2023-02-06T22:09:08.238Z,100824.03
2023-02-06T22:11:37.681Z,100816.13
2023-02-06T22:14:07.240Z,100826.69
2023-02-06T22:16:34.558Z,100836.38
2023-02-06T22:19:01.097Z,100833.75
2023-02-06T22:21:29.575Z,100836.38
2023-02-06T22:23:59.060Z,100833.81
2023-02-06T22:26:27.279Z,100820.75
2023-02-06T22:28:54.696Z,100832.84
2023-02-06T22:31:24.171Z,100844.34
2023-02-06T22:33:51.852Z,100847.94
2023-02-06T22:36:23.895Z,100855.75
2023-02-06T22:39:01.539Z,100859.28
2023-02-06T22:41:28.655Z,100855.78
2023-02-06T22:43:55.623Z,100857.56
2023-02-06T22:46:31.330Z,100851.41
2023-02-06T22:48:58.557Z,100849.66
2023-02-06T22:51:25.762Z,100838.22
2023-02-06T22:53:53.084Z,100829.47
2023-02-06T22:56:31.976Z,100819.03
2023-02-06T22:59:06.801Z,100830.38
2023-02-06T23:01:36.284Z,100824.38
2023-02-06T23:04:05.067Z,100821.78
2023-02-06T23:06:33.689Z,100823.44
2023-02-06T23:09:01.875Z,100826.19
2023-02-06T23:11:28.999Z,100812.31
2023-02-06T23:13:58.402Z,100833.13
2023-02-06T23:16:26.089Z,100834.97
2023-02-06T23:18:55.635Z,100799.28
2023-02-06T23:21:23.849Z,100818.25
2023-02-06T23:23:50.400Z,100808.78
2023-02-06T23:26:19.152Z,100809.53
2023-02-06T23:28:45.804Z,100813.06
2023-02-06T23:31:13.654Z,100820.06
2023-02-06T23:33:41.160Z,100821.84
2023-02-06T23:36:11.278Z,100827.13
2023-02-06T23:38:38.491Z,100819.22
2023-02-06T23:41:10.851Z,100799.16
2023-02-06T23:43:38.167Z,100800.13
2023-02-06T23:46:05.893Z,100804.38
2023-02-06T23:48:33.048Z,100803.56
2023-02-06T23:51:00.261Z,100808.84
2023-02-06T23:53:27.156Z,100783.63
2023-02-06T23:55:53.977Z,100802.69
2023-02-06T23:58:21.031Z,100800.91
